Time;durP1;ratioP1;P1;durP2;ratioP2;P2;SDS_P1;SDS_P2;PMS_P1;PMS_P2;Temp;Humidity;BMP_temperature;BMP_pressure;BME280_temperature;BME280_humidity;BME280_pressure;Samples;Min_cycle;Max_cycle;Signal;HPM_P1;HPM_P2
2021/10/29 00:01:54;;;;;;;80.20;33.37;;;1.30;99.90;;;;;;4189562;28;20269;-63
2021/10/29 00:03:55;;;;;;;74.27;32.87;;;1.20;99.90;;;;;;4189666;28;20749;-63
2021/10/29 00:05:56;;;;;;;68.13;33.00;;;1.10;99.90;;;;;;4189949;28;20269;-66
2021/10/29 00:07:58;;;;;;;74.07;32.37;;;1.10;99.90;;;;;;4188943;28;20270;-63
2021/10/29 00:10:00;;;;;;;72.37;32.87;;;1.00;99.90;;;;;;4189142;28;21184;-62
2021/10/29 00:12:01;;;;;;;65.17;31.77;;;1.00;99.90;;;;;;4189060;28;20599;-63
2021/10/29 00:14:03;;;;;;;74.83;33.03;;;1.00;99.90;;;;;;4189346;28;20299;-63
2021/10/29 00:16:04;;;;;;;74.17;31.30;;;1.00;99.90;;;;;;4188262;28;20303;-62
2021/10/29 00:18:05;;;;;;;78.23;31.70;;;1.10;99.90;;;;;;4189332;28;20273;-63
2021/10/29 00:20:08;;;;;;;68.17;31.43;;;1.10;99.90;;;;;;4188727;28;20265;-62
2021/10/29 00:22:10;;;;;;;65.37;31.13;;;1.20;99.90;;;;;;4189461;28;20723;-63
2021/10/29 00:24:11;;;;;;;73.27;31.57;;;1.30;99.90;;;;;;4188797;28;20664;-63
2021/10/29 00:26:12;;;;;;;68.60;30.70;;;1.30;99.90;;;;;;4187929;28;20277;-63
2021/10/29 00:28:13;;;;;;;78.23;31.03;;;1.40;99.90;;;;;;4188643;28;20314;-67
2021/10/29 00:30:15;;;;;;;75.23;32.23;;;1.40;99.90;;;;;;4188994;28;20842;-63
2021/10/29 00:32:16;;;;;;;68.57;31.37;;;1.40;99.90;;;;;;4188875;28;20261;-63
2021/10/29 00:34:18;;;;;;;65.93;31.07;;;1.40;99.90;;;;;;4188349;28;20274;-64
2021/10/29 00:36:20;;;;;;;66.10;31.20;;;1.40;99.90;;;;;;4188520;28;20285;-63
2021/10/29 00:38:21;;;;;;;71.43;33.70;;;1.50;99.90;;;;;;4188922;28;20262;-63
2021/10/29 00:40:22;;;;;;;74.60;32.43;;;1.40;99.90;;;;;;4189241;28;20273;-62
2021/10/29 00:42:24;;;;;;;71.93;29.33;;;1.40;99.90;;;;;;4188690;28;20285;-64
2021/10/29 00:44:26;;;;;;;62.93;29.77;;;1.40;99.90;;;;;;4189733;28;20327;-63
2021/10/29 00:46:28;;;;;;;64.53;30.80;;;1.40;99.90;;;;;;4188543;28;20335;-62
2021/10/29 00:48:29;;;;;;;67.90;30.17;;;1.40;99.90;;;;;;4188335;28;20281;-65
2021/10/29 00:50:30;;;;;;;63.10;27.80;;;1.40;99.90;;;;;;4188268;28;20289;-62
2021/10/29 00:52:32;;;;;;;63.10;27.90;;;1.40;99.90;;;;;;4187698;28;20403;-63
2021/10/29 00:54:33;;;;;;;60.63;29.50;;;1.30;99.90;;;;;;4186281;28;20304;-62
2021/10/29 00:56:35;;;;;;;66.20;29.97;;;1.20;99.90;;;;;;4189289;28;20323;-63
2021/10/29 00:58:36;;;;;;;71.00;31.63;;;1.10;99.90;;;;;;4188861;28;20273;-63
2021/10/29 01:00:37;;;;;;;71.17;32.40;;;1.10;99.90;;;;;;4189139;28;20295;-63
2021/10/29 01:02:39;;;;;;;70.53;31.47;;;1.10;99.90;;;;;;4189173;28;21724;-64
2021/10/29 01:04:40;;;;;;;65.13;30.77;;;1.00;99.90;;;;;;4189204;28;20261;-63
2021/10/29 01:06:43;;;;;;;68.70;31.83;;;1.00;99.90;;;;;;4188861;28;20278;-62
2021/10/29 01:08:44;;;;;;;68.93;30.90;;;1.00;99.90;;;;;;4188697;28;20323;-65
2021/10/29 01:10:47;;;;;;;65.97;29.90;;;1.00;99.90;;;;;;4188794;28;20338;-62
2021/10/29 01:12:48;;;;;;;62.80;30.07;;;1.00;99.90;;;;;;4188628;28;20257;-63
2021/10/29 01:14:53;;;;;;;70.07;30.80;;;1.00;99.90;;;;;;4187325;28;20265;-62
2021/10/29 01:16:54;;;;;;;68.80;30.80;;;1.00;99.90;;;;;;4188417;28;20257;-63
2021/10/29 01:18:55;;;;;;;68.00;31.57;;;1.00;99.90;;;;;;4189157;28;20265;-63
2021/10/29 01:20:57;;;;;;;68.10;31.07;;;1.00;99.90;;;;;;4190604;28;20343;-63
2021/10/29 01:22:58;;;;;;;72.17;31.23;;;1.00;99.90;;;;;;4192466;28;20261;-65
2021/10/29 01:24:59;;;;;;;60.20;30.00;;;0.90;99.90;;;;;;4191136;28;20330;-64
2021/10/29 01:27:09;;;;;;;65.53;30.07;;;0.90;99.90;;;;;;4192417;28;20337;-62
2021/10/29 01:29:10;;;;;;;73.05;32.95;;;1.00;99.90;;;;;;4191023;28;20285;-62
2021/10/29 01:31:12;;;;;;;71.40;31.27;;;1.00;99.90;;;;;;4193110;28;20037;-62
2021/10/29 01:33:14;;;;;;;72.53;30.63;;;0.90;99.90;;;;;;4192166;28;20322;-64
2021/10/29 01:35:16;;;;;;;64.33;30.57;;;0.90;99.90;;;;;;4192891;28;20303;-63
2021/10/29 01:37:17;;;;;;;71.67;32.97;;;0.80;99.90;;;;;;4191637;28;20690;-63
2021/10/29 01:39:18;;;;;;;83.10;34.83;;;0.80;99.90;;;;;;4191956;28;20733;-63
2021/10/29 01:41:19;;;;;;;76.03;33.40;;;0.80;99.90;;;;;;4191606;28;20786;-63
2021/10/29 01:43:20;;;;;;;75.90;34.37;;;0.80;99.90;;;;;;4191527;28;20799;-64
2021/10/29 01:45:21;;;;;;;74.10;32.17;;;0.80;99.90;;;;;;4191793;28;20272;-62
2021/10/29 01:47:23;;;;;;;74.47;32.40;;;0.90;99.90;;;;;;4191754;28;20945;-62
2021/10/29 01:49:24;;;;;;;68.37;33.10;;;0.90;99.90;;;;;;4191800;28;20289;-62
2021/10/29 01:51:25;;;;;;;69.57;31.83;;;0.90;99.90;;;;;;4191197;28;20269;-63
2021/10/29 01:53:27;;;;;;;74.53;30.77;;;0.80;99.90;;;;;;4191726;28;20331;-61
2021/10/29 01:55:28;;;;;;;76.97;31.83;;;0.90;99.90;;;;;;4190626;28;20385;-62
2021/10/29 01:57:29;;;;;;;70.83;30.67;;;0.90;99.90;;;;;;4192002;28;20362;-64
2021/10/29 01:59:31;;;;;;;74.13;32.23;;;0.90;99.90;;;;;;4191158;28;20760;-63
2021/10/29 02:01:32;;;;;;;70.33;33.27;;;1.00;99.90;;;;;;4203798;28;20690;-62
2021/10/29 02:03:34;;;;;;;65.70;31.63;;;0.90;99.90;;;;;;4207661;28;20766;-62
2021/10/29 02:05:37;;;;;;;65.83;30.30;;;0.90;99.90;;;;;;4208015;28;20699;-61
2021/10/29 02:07:38;;;;;;;65.07;30.67;;;0.90;99.90;;;;;;4206816;28;20272;-63
2021/10/29 02:09:39;;;;;;;72.33;31.73;;;0.90;99.90;;;;;;4208063;28;20300;-63
2021/10/29 02:11:42;;;;;;;63.13;31.07;;;0.90;99.90;;;;;;4207714;28;20311;-62
2021/10/29 02:13:43;;;;;;;67.47;30.70;;;1.00;99.90;;;;;;4207398;28;20760;-62
2021/10/29 02:15:45;;;;;;;67.57;30.60;;;1.00;99.90;;;;;;4206269;28;20386;-63
2021/10/29 02:17:46;;;;;;;73.03;30.20;;;1.00;99.90;;;;;;4199084;28;20358;-62
2021/10/29 02:19:47;;;;;;;70.20;31.60;;;0.90;99.90;;;;;;4191522;28;20261;-63
2021/10/29 02:21:48;;;;;;;61.30;29.63;;;0.90;99.90;;;;;;4190783;28;20756;-62
2021/10/29 02:23:49;;;;;;;59.53;26.70;;;0.90;99.90;;;;;;4191145;28;20274;-63
2021/10/29 02:25:51;;;;;;;59.60;27.97;;;0.90;99.90;;;;;;4190665;28;20392;-63
2021/10/29 02:27:52;;;;;;;58.90;27.47;;;0.90;99.90;;;;;;4190655;28;20277;-62
2021/10/29 02:29:53;;;;;;;59.77;27.97;;;0.80;99.90;;;;;;4190196;28;21067;-63
2021/10/29 02:31:54;;;;;;;60.23;28.90;;;0.80;99.90;;;;;;4190168;28;20277;-62
2021/10/29 02:33:56;;;;;;;59.73;28.97;;;0.80;99.90;;;;;;4190327;28;20329;-63
2021/10/29 02:35:58;;;;;;;59.97;28.43;;;0.80;99.90;;;;;;4192316;28;20274;-63
2021/10/29 02:38:00;;;;;;;60.60;29.07;;;0.70;99.90;;;;;;4190513;28;20331;-62
2021/10/29 02:40:01;;;;;;;52.73;26.50;;;0.70;99.90;;;;;;4190648;28;20274;-63
2021/10/29 02:42:04;;;;;;;62.70;27.67;;;0.70;99.90;;;;;;4190405;28;21268;-61
2021/10/29 02:44:05;;;;;;;53.97;26.10;;;0.60;99.90;;;;;;4190717;28;20327;-62
2021/10/29 02:46:06;;;;;;;68.03;27.67;;;0.60;99.90;;;;;;4190866;28;20277;-62
2021/10/29 02:48:07;;;;;;;58.17;27.20;;;0.50;99.90;;;;;;4190498;28;20371;-62
2021/10/29 02:50:09;;;;;;;60.73;29.70;;;0.50;99.90;;;;;;4190614;28;20832;-63
2021/10/29 02:52:10;;;;;;;58.77;27.90;;;0.40;99.90;;;;;;4190842;28;20277;-64
2021/10/29 02:54:11;;;;;;;59.93;28.53;;;0.20;99.90;;;;;;4191271;28;20285;-64
2021/10/29 02:56:12;;;;;;;61.87;28.60;;;0.20;99.90;;;;;;4189975;28;20269;-64
2021/10/29 02:58:13;;;;;;;53.57;26.90;;;0.10;99.90;;;;;;4190546;28;20274;-62
2021/10/29 03:00:17;;;;;;;68.07;30.13;;;0.00;99.90;;;;;;4189740;28;20323;-65
2021/10/29 03:02:18;;;;;;;59.10;29.37;;;0.00;99.90;;;;;;4191134;28;21086;-62
2021/10/29 03:04:19;;;;;;;63.37;31.07;;;0.00;99.90;;;;;;4189728;28;20265;-63
2021/10/29 03:06:20;;;;;;;61.50;29.73;;;0.00;99.90;;;;;;4190931;28;20277;-63
2021/10/29 03:08:22;;;;;;;63.60;31.30;;;0.00;99.90;;;;;;4190152;28;20331;-64
2021/10/29 03:10:23;;;;;;;73.50;34.03;;;0.00;99.90;;;;;;4190507;28;20285;-62
2021/10/29 03:12:24;;;;;;;65.40;32.47;;;-0.10;99.90;;;;;;4189864;28;20769;-62
2021/10/29 03:14:25;;;;;;;78.53;36.80;;;-0.10;99.90;;;;;;4190593;28;20261;-63
2021/10/29 03:16:27;;;;;;;71.67;34.83;;;-0.20;99.90;;;;;;4189753;28;20262;-63
2021/10/29 03:18:28;;;;;;;73.77;33.47;;;-0.20;99.90;;;;;;4190656;28;20261;-66
2021/10/29 03:20:29;;;;;;;82.03;33.37;;;-0.20;99.90;;;;;;4190073;28;21049;-62
2021/10/29 03:22:31;;;;;;;71.03;33.33;;;-0.20;99.90;;;;;;4189447;28;20315;-65
2021/10/29 03:24:32;;;;;;;77.63;34.17;;;-0.20;99.90;;;;;;4189702;28;20684;-61
2021/10/29 03:26:33;;;;;;;83.07;35.37;;;-0.20;99.90;;;;;;4189828;28;20270;-64
2021/10/29 03:28:35;;;;;;;77.20;34.97;;;-0.20;99.90;;;;;;4189649;28;20289;-62
2021/10/29 03:30:37;;;;;;;74.30;34.27;;;-0.20;99.90;;;;;;4188843;28;20294;-63
2021/10/29 03:32:40;;;;;;;81.87;34.67;;;-0.30;99.90;;;;;;4190498;28;20335;-64
2021/10/29 03:34:41;;;;;;;85.60;36.63;;;-0.30;99.90;;;;;;4189060;28;20266;-62
2021/10/29 03:36:42;;;;;;;77.83;33.50;;;-0.30;99.90;;;;;;4190219;28;20277;-63
2021/10/29 03:38:55;;;;;;;92.07;35.73;;;-0.30;99.90;;;;;;4189243;28;20269;-62
2021/10/29 03:40:59;;;;;;;89.30;37.30;;;-0.40;99.90;;;;;;4190362;28;20273;-62
2021/10/29 03:45:08;;;;;;;89.33;34.13;;;-0.50;99.90;;;;;;4189902;28;20324;-64
2021/10/29 03:47:10;;;;;;;83.77;37.43;;;-0.50;99.90;;;;;;4189508;28;20265;-63
2021/10/29 03:51:36;;;;;;;83.00;35.87;;;-0.50;99.90;;;;;;4188943;28;20688;-64
2021/10/29 03:53:46;;;;;;;80.30;34.10;;;-0.50;99.90;;;;;;4189745;28;20257;-63
2021/10/29 03:55:47;;;;;;;80.53;34.75;;;-0.40;99.90;;;;;;4187481;28;20273;-63
2021/10/29 03:57:48;;;;;;;82.30;34.57;;;-0.30;99.90;;;;;;4188950;28;20063;-65
2021/10/29 03:59:50;;;;;;;80.33;35.63;;;-0.30;99.90;;;;;;4189290;28;20322;-66
2021/10/29 04:01:52;;;;;;;81.57;36.33;;;-0.30;99.90;;;;;;4187187;28;20281;-65
2021/10/29 04:03:53;;;;;;;89.20;37.10;;;-0.20;99.90;;;;;;4189672;28;20266;-65
2021/10/29 04:05:54;;;;;;;82.67;36.23;;;-0.20;99.90;;;;;;4190005;28;20311;-63
2021/10/29 04:07:55;;;;;;;82.70;36.63;;;-0.20;99.90;;;;;;4188841;28;20340;-64
2021/10/29 04:09:56;;;;;;;88.63;37.33;;;-0.20;99.90;;;;;;4189496;28;20736;-63
2021/10/29 04:11:57;;;;;;;86.20;37.33;;;-0.10;99.90;;;;;;4189357;28;20277;-64
2021/10/29 04:13:58;;;;;;;91.47;36.53;;;-0.20;99.90;;;;;;4188748;28;20270;-64
2021/10/29 04:16:03;;;;;;;83.87;36.13;;;-0.20;99.90;;;;;;4189102;28;20680;-60
2021/10/29 04:18:05;;;;;;;83.47;35.10;;;-0.20;99.90;;;;;;4188414;28;20273;-63
2021/10/29 04:20:06;;;;;;;85.80;36.87;;;-0.20;99.90;;;;;;4189543;28;20680;-65
2021/10/29 04:22:07;;;;;;;93.97;38.60;;;-0.10;99.90;;;;;;4188023;28;20334;-64
2021/10/29 04:24:08;;;;;;;90.17;36.80;;;-0.10;99.90;;;;;;4189091;28;20606;-63
2021/10/29 04:26:10;;;;;;;84.63;37.70;;;-0.10;99.90;;;;;;4187974;28;20330;-64
2021/10/29 04:28:12;;;;;;;88.47;38.23;;;-0.10;99.90;;;;;;4186681;28;20745;-65
2021/10/29 04:30:17;;;;;;;86.93;36.63;;;-0.10;99.90;;;;;;4188697;28;20347;-61
2021/10/29 04:32:18;;;;;;;81.20;37.00;;;-0.10;99.90;;;;;;4187055;28;21298;-62
2021/10/29 04:34:22;;;;;;;85.27;37.73;;;0.00;99.90;;;;;;4183115;28;20285;-63
2021/10/29 04:36:24;;;;;;;91.53;38.47;;;0.00;99.90;;;;;;4185081;28;20327;-62
2021/10/29 04:38:25;;;;;;;94.30;40.10;;;0.00;99.90;;;;;;4182983;28;20731;-63
2021/10/29 04:40:26;;;;;;;94.67;36.10;;;0.10;99.90;;;;;;4181798;28;20339;-63
2021/10/29 04:42:28;;;;;;;93.87;39.17;;;0.00;99.90;;;;;;4183034;28;20747;-62
2021/10/29 04:44:29;;;;;;;89.87;37.20;;;0.00;99.90;;;;;;4179869;28;20289;-63
2021/10/29 04:46:31;;;;;;;90.10;36.10;;;0.00;99.90;;;;;;4183981;28;20335;-62
2021/10/29 04:48:32;;;;;;;82.07;37.83;;;-0.10;99.90;;;;;;4182358;28;20719;-63
2021/10/29 04:50:34;;;;;;;88.93;38.30;;;0.00;99.90;;;;;;4184274;28;20323;-62
2021/10/29 04:52:35;;;;;;;89.87;37.20;;;0.00;99.90;;;;;;4181538;28;20319;-64
2021/10/29 04:54:37;;;;;;;90.57;38.40;;;0.00;99.90;;;;;;4183298;28;20278;-63
2021/10/29 04:56:38;;;;;;;92.27;39.40;;;0.00;99.90;;;;;;4183519;28;21204;-64
2021/10/29 04:58:39;;;;;;;94.30;38.40;;;0.00;99.90;;;;;;4184046;28;20277;-61
2021/10/29 05:00:41;;;;;;;89.97;38.00;;;0.10;99.90;;;;;;4190225;28;20323;-62
2021/10/29 05:02:42;;;;;;;92.67;39.27;;;0.00;99.90;;;;;;4192836;28;20310;-62
2021/10/29 05:04:43;;;;;;;93.37;38.30;;;0.10;99.90;;;;;;4190849;28;20337;-62
2021/10/29 05:06:45;;;;;;;89.53;38.67;;;0.10;99.90;;;;;;4185583;28;20258;-63
2021/10/29 05:08:46;;;;;;;91.37;40.37;;;0.10;99.90;;;;;;4183349;28;20281;-65
2021/10/29 05:10:48;;;;;;;88.80;37.93;;;0.10;99.90;;;;;;4182741;28;20297;-64
2021/10/29 05:12:51;;;;;;;85.60;37.67;;;0.10;99.90;;;;;;4187469;28;20303;-63
2021/10/29 05:14:53;;;;;;;89.47;38.37;;;0.20;99.90;;;;;;4187900;28;20327;-63
2021/10/29 05:16:54;;;;;;;85.40;37.20;;;0.30;99.90;;;;;;4188772;28;20742;-63
2021/10/29 05:18:56;;;;;;;85.30;37.87;;;0.30;99.90;;;;;;4187953;28;20270;-63
2021/10/29 05:20:57;;;;;;;82.87;38.33;;;0.40;99.90;;;;;;4188954;28;20335;-65
2021/10/29 05:22:58;;;;;;;74.17;35.07;;;0.50;99.90;;;;;;4188253;28;20769;-63
2021/10/29 05:24:59;;;;;;;78.17;34.57;;;0.60;99.90;;;;;;4189282;28;20686;-63
2021/10/29 05:27:00;;;;;;;80.73;35.73;;;0.80;99.90;;;;;;4187974;28;20261;-64
2021/10/29 05:29:02;;;;;;;70.60;30.57;;;1.10;99.90;;;;;;4189043;28;20358;-64
2021/10/29 05:31:03;;;;;;;65.90;32.63;;;1.20;99.90;;;;;;4187704;28;20298;-63
2021/10/29 05:33:04;;;;;;;69.70;30.77;;;1.40;99.90;;;;;;4188432;28;20274;-63
2021/10/29 05:35:07;;;;;;;67.53;31.77;;;1.60;99.90;;;;;;4188057;28;20269;-64
2021/10/29 05:37:08;;;;;;;66.27;34.20;;;1.90;99.90;;;;;;4188997;28;20323;-62
2021/10/29 05:39:10;;;;;;;73.50;32.80;;;2.10;99.90;;;;;;4186258;28;20285;-63
2021/10/29 05:41:12;;;;;;;67.47;31.80;;;2.40;99.90;;;;;;4182640;28;20359;-65
2021/10/29 05:43:13;;;;;;;70.40;33.00;;;2.60;99.90;;;;;;4190601;28;20269;-63
2021/10/29 05:45:14;;;;;;;70.50;33.93;;;2.80;99.90;;;;;;4203938;28;20277;-64
2021/10/29 05:47:16;;;;;;;69.17;31.67;;;2.90;99.90;;;;;;4205164;28;20318;-63
2021/10/29 05:49:18;;;;;;;61.83;33.03;;;3.10;99.90;;;;;;4204730;28;20744;-65
2021/10/29 05:51:21;;;;;;;66.77;31.63;;;3.20;99.90;;;;;;4205207;28;20346;-65
2021/10/29 05:53:35;;;;;;;64.93;30.77;;;3.20;99.90;;;;;;4204730;28;20272;-64
2021/10/29 05:55:36;;;;;;;67.33;31.10;;;3.40;99.90;;;;;;4201153;28;20277;-63
2021/10/29 05:57:37;;;;;;;59.50;30.63;;;3.60;99.90;;;;;;4187592;28;20442;-65
2021/10/29 05:59:38;;;;;;;62.23;29.43;;;3.80;99.90;;;;;;4189192;28;20319;-65
2021/10/29 06:01:42;;;;;;;61.77;31.00;;;3.90;99.90;;;;;;4186927;28;20261;-64
2021/10/29 06:03:43;;;;;;;62.27;31.60;;;4.10;99.90;;;;;;4186641;28;21143;-65
2021/10/29 06:05:45;;;;;;;66.90;31.47;;;4.20;99.90;;;;;;4188213;28;20277;-64
2021/10/29 06:07:46;;;;;;;65.67;30.30;;;4.10;99.90;;;;;;4191473;28;20266;-64
2021/10/29 06:09:47;;;;;;;68.97;33.97;;;4.10;99.90;;;;;;4190385;28;20082;-65
2021/10/29 06:11:48;;;;;;;76.37;34.20;;;4.10;99.90;;;;;;4191148;28;20049;-64
2021/10/29 06:13:49;;;;;;;78.10;36.03;;;4.10;99.90;;;;;;4190833;28;20058;-64
2021/10/29 06:15:51;;;;;;;82.87;37.93;;;4.20;99.90;;;;;;4190583;28;20073;-64
2021/10/29 06:17:52;;;;;;;91.23;39.70;;;4.60;99.90;;;;;;4190850;28;20049;-65
2021/10/29 06:19:53;;;;;;;87.70;39.37;;;4.80;99.90;;;;;;4190564;28;20430;-65
2021/10/29 06:24:16;;;;;;;90.47;38.90;;;5.20;99.90;;;;;;4190949;28;20066;-64
2021/10/29 06:26:26;;;;;;;81.30;41.23;;;5.30;99.90;;;;;;4190304;28;20044;-67
2021/10/29 06:28:30;;;;;;;78.33;35.43;;;5.30;99.90;;;;;;4190137;28;20044;-66
2021/10/29 06:30:35;;;;;;;87.67;36.37;;;5.40;99.90;;;;;;4191103;28;20061;-66
2021/10/29 06:32:36;;;;;;;80.10;35.60;;;5.60;99.90;;;;;;4189741;28;20098;-66
2021/10/29 06:34:38;;;;;;;80.93;38.97;;;5.80;99.90;;;;;;4191510;28;20567;-67
2021/10/29 06:36:40;;;;;;;92.43;39.97;;;6.10;99.90;;;;;;4190854;28;20032;-66
2021/10/29 06:38:42;;;;;;;87.60;39.60;;;6.30;99.90;;;;;;4191081;28;20036;-66
2021/10/29 06:40:46;;;;;;;93.17;40.10;;;6.30;99.90;;;;;;4189475;28;20044;-65
2021/10/29 06:42:52;;;;;;;87.73;40.27;;;6.50;99.90;;;;;;4190513;28;20122;-66
2021/10/29 06:49:10;;;;;;;118.97;52.08;;;7.10;99.90;;;;;;4189790;28;20041;-66
2021/10/29 07:00:42;;;;;;;101.97;46.53;;;7.10;99.90;;;;;;4191002;28;20082;-66
2021/10/29 07:39:58;;;;;;;77.53;37.38;;;8.70;99.90;;;;;;4189795;28;20098;-66
2021/10/29 07:41:59;;;;;;;;;;;8.60;99.70;;;;;;4189763;28;20033;-65
2021/10/29 07:44:02;;;;;;;;;;;8.30;99.50;;;;;;4190502;28;20019;-65
2021/10/29 07:46:04;;;;;;;71.80;36.57;;;8.30;99.60;;;;;;4189207;28;19977;-66
2021/10/29 07:48:05;;;;;;;76.40;36.03;;;8.20;99.90;;;;;;4189997;28;20530;-65
2021/10/29 07:50:09;;;;;;;69.53;37.53;;;8.30;99.90;;;;;;4189196;28;20032;-68
2021/10/29 07:52:11;;;;;;;72.83;36.47;;;8.30;99.80;;;;;;4190353;28;20849;-66
2021/10/29 07:54:12;;;;;;;78.77;37.23;;;8.10;99.90;;;;;;4189068;28;20451;-66
2021/10/29 07:56:13;;;;;;;69.20;34.77;;;7.60;99.90;;;;;;4190304;28;20036;-66
2021/10/29 07:58:15;;;;;;;66.30;32.97;;;7.30;99.90;;;;;;4187986;28;20049;-66
2021/10/29 08:00:18;;;;;;;65.33;34.37;;;7.20;99.90;;;;;;4189323;28;20459;-65
2021/10/29 08:02:20;;;;;;;64.33;32.80;;;7.00;99.90;;;;;;4188976;28;20562;-66
2021/10/29 08:04:22;;;;;;;64.27;33.77;;;6.80;99.90;;;;;;4188040;28;20025;-66
2021/10/29 08:06:23;;;;;;;63.63;34.63;;;6.90;99.90;;;;;;4187208;28;20466;-66
2021/10/29 08:08:24;;;;;;;58.27;31.30;;;7.00;99.90;;;;;;4186093;28;20867;-65
2021/10/29 08:10:25;;;;;;;70.87;33.50;;;7.10;99.90;;;;;;4188859;28;20040;-65
2021/10/29 08:12:27;;;;;;;65.37;33.37;;;7.50;99.90;;;;;;4188426;28;20110;-67
2021/10/29 08:14:28;;;;;;;68.40;33.63;;;7.60;99.90;;;;;;4189182;28;20093;-66
2021/10/29 08:16:29;;;;;;;64.30;33.43;;;7.60;99.90;;;;;;4188856;28;21280;-67
2021/10/29 08:18:39;;;;;;;66.80;32.57;;;7.70;99.90;;;;;;4188903;28;20081;-66
2021/10/29 08:20:40;;;;;;;67.82;33.92;;;7.70;99.90;;;;;;4188861;28;20385;-65
2021/10/29 08:22:42;;;;;;;67.77;34.17;;;7.70;99.90;;;;;;4188973;28;20442;-66
2021/10/29 08:24:44;;;;;;;62.47;33.60;;;7.70;99.90;;;;;;4188932;28;20070;-65
2021/10/29 08:26:46;;;;;;;64.40;34.57;;;7.80;99.90;;;;;;4189288;28;20032;-66
2021/10/29 08:28:47;;;;;;;59.10;34.00;;;8.00;99.90;;;;;;4186644;28;20098;-66
2021/10/29 08:30:49;;;;;;;78.83;34.80;;;8.10;99.90;;;;;;4187564;28;20040;-66
2021/10/29 08:32:51;;;;;;;71.87;35.90;;;8.20;99.90;;;;;;4187959;28;20085;-67
2021/10/29 08:34:52;;;;;;;61.63;33.20;;;8.40;99.90;;;;;;4189330;28;20028;-66
2021/10/29 08:36:57;;;;;;;70.00;34.40;;;8.60;99.90;;;;;;4188863;28;20111;-65
2021/10/29 08:38:59;;;;;;;67.90;35.77;;;8.70;99.90;;;;;;4189161;28;20040;-65
2021/10/29 08:41:00;;;;;;;66.87;35.77;;;8.80;99.90;;;;;;4187981;28;20779;-66
2021/10/29 08:43:01;;;;;;;69.57;35.60;;;8.80;99.90;;;;;;4188707;28;20036;-66
2021/10/29 08:45:06;;;;;;;64.83;33.03;;;8.90;99.90;;;;;;4188145;28;20040;-66
2021/10/29 08:47:07;;;;;;;63.50;33.30;;;9.10;99.90;;;;;;4188226;28;20028;-66
2021/10/29 08:49:09;;;;;;;62.60;34.07;;;9.20;99.90;;;;;;4188396;28;20025;-66
2021/10/29 08:51:11;;;;;;;62.63;33.10;;;9.30;99.90;;;;;;4187703;28;20037;-65
2021/10/29 08:53:13;;;;;;;59.00;31.67;;;9.40;99.90;;;;;;4188998;28;20062;-65
2021/10/29 08:55:17;;;;;;;62.03;32.07;;;9.40;99.90;;;;;;4187816;28;20044;-66
2021/10/29 08:57:19;;;;;;;56.67;30.73;;;9.50;99.90;;;;;;4188271;28;20094;-65
2021/10/29 08:59:33;;;;;;;60.57;31.43;;;9.70;99.90;;;;;;4187265;28;20045;-66
2021/10/29 09:04:08;;;;;;;58.42;29.90;;;10.00;99.90;;;;;;4188936;28;20431;-68
2021/10/29 09:31:40;;;;;;;35.40;20.67;;;11.70;98.80;;;;;;4184148;28;20114;-71
2021/10/29 09:33:10;;;;;;;35.50;18.80;;;11.90;98.30;;;;;;4179042;28;20086;-67
2021/10/29 09:35:14;;;;;;;38.33;20.97;;;12.00;97.80;;;;;;4188420;28;20029;-69
2021/10/29 09:37:15;;;;;;;30.13;18.73;;;12.20;97.30;;;;;;4193266;28;20419;-67
2021/10/29 09:39:22;;;;;;;34.60;19.63;;;12.30;97.00;;;;;;4188237;28;20098;-66
2021/10/29 09:41:23;;;;;;;35.73;18.07;;;12.40;96.90;;;;;;4172344;28;20107;-67
2021/10/29 09:43:25;;;;;;;31.00;16.93;;;12.50;96.50;;;;;;4174601;28;20025;-66
2021/10/29 09:45:31;;;;;;;29.60;17.27;;;12.50;95.90;;;;;;4180676;28;20086;-65
2021/10/29 09:47:34;;;;;;;28.30;15.73;;;12.60;95.90;;;;;;4191520;28;20025;-65
2021/10/29 09:49:39;;;;;;;29.83;16.63;;;12.70;95.70;;;;;;4191247;28;20078;-66
2021/10/29 09:54:16;;;;;;;33.50;17.40;;;13.00;94.60;;;;;;4191338;28;20059;-65
2021/10/29 09:58:22;;;;;;;33.27;17.83;;;13.10;94.30;;;;;;4196396;28;20078;-66
2021/10/29 10:00:23;;;;;;;32.30;17.37;;;13.20;94.50;;;;;;4190569;28;20625;-66
2021/10/29 10:02:27;;;;;;;33.33;17.90;;;13.30;94.10;;;;;;4191262;28;20505;-67
2021/10/29 10:04:29;;;;;;;32.40;17.10;;;13.30;93.80;;;;;;4190486;28;20033;-65
2021/10/29 10:06:39;;;;;;;33.83;16.73;;;13.40;93.80;;;;;;4192044;28;20435;-67
2021/10/29 10:08:41;;;;;;;35.37;16.47;;;13.50;93.30;;;;;;4190845;28;20042;-69
2021/10/29 10:10:46;;;;;;;33.07;15.83;;;13.50;93.30;;;;;;4191224;28;20503;-68
2021/10/29 10:12:49;;;;;;;26.50;14.03;;;13.70;93.00;;;;;;4189954;28;20052;-67
2021/10/29 10:14:53;;;;;;;25.03;13.20;;;13.80;92.50;;;;;;4188075;28;20411;-64
2021/10/29 10:16:54;;;;;;;26.33;14.07;;;14.00;92.20;;;;;;4186430;28;20044;-67
2021/10/29 10:18:56;;;;;;;27.50;13.17;;;14.00;92.20;;;;;;4187394;28;20032;-63
2021/10/29 10:21:01;;;;;;;26.30;12.73;;;14.20;92.10;;;;;;4186775;28;20419;-64
2021/10/29 10:23:07;;;;;;;20.77;9.87;;;14.30;91.10;;;;;;4187158;28;20075;-65
2021/10/29 10:25:17;;;;;;;19.53;9.37;;;14.40;90.00;;;;;;4185767;28;20090;-62
2021/10/29 10:41:38;;;;;;;20.93;9.37;;;15.10;86.60;;;;;;4187578;28;20082;-64
2021/10/29 10:45:52;;;;;;;17.23;9.13;;;15.20;85.20;;;;;;4186424;28;20093;-64
2021/10/29 10:47:59;;;;;;;19.50;9.93;;;15.20;84.80;;;;;;4186009;28;21630;-63
2021/10/29 10:50:16;;;;;;;20.07;9.90;;;15.30;85.50;;;;;;4186673;28;20078;-69
2021/10/29 10:57:08;;;;;;;20.03;10.30;;;15.30;84.40;;;;;;4184846;28;20036;-65
2021/10/29 10:59:39;;;;;;;21.97;10.53;;;15.30;84.10;;;;;;4187063;28;20527;-62
2021/10/29 11:02:09;;;;;;;19.43;10.07;;;15.40;83.50;;;;;;4186534;28;20044;-63
2021/10/29 11:04:34;;;;;;;20.65;8.55;;;15.40;84.30;;;;;;4185081;28;21191;-64
2021/10/29 11:11:24;;;;;;;15.40;7.15;;;15.40;81.20;;;;;;4185100;28;20082;-63
2021/10/29 11:13:46;;;;;;;15.15;7.25;;;15.40;81.50;;;;;;4182925;28;20048;-63
2021/10/29 11:16:04;;;;;;;10.98;7.07;;;15.40;81.20;;;;;;4186859;28;20025;-66
2021/10/29 11:18:17;;;;;;;12.75;6.80;;;15.50;79.90;;;;;;4185777;28;20032;-64
2021/10/29 11:20:40;;;;;;;16.40;7.15;;;15.60;79.20;;;;;;4184440;28;20090;-65
2021/10/29 11:22:45;;;;;;;14.93;7.20;;;15.70;79.10;;;;;;4196600;28;20904;-63
2021/10/29 11:24:49;;;;;;;12.45;6.70;;;15.70;79.80;;;;;;4195308;28;20033;-64
2021/10/29 11:26:51;;;;;;;14.82;6.65;;;15.80;79.00;;;;;;4188429;28;20036;-64
2021/10/29 11:28:54;;;;;;;13.55;7.22;;;15.80;79.20;;;;;;4186668;28;21136;-62
2021/10/29 11:30:57;;;;;;;11.63;6.65;;;15.70;79.00;;;;;;4185362;28;20082;-67
2021/10/29 11:32:59;;;;;;;14.00;7.03;;;15.80;78.90;;;;;;4185235;28;20094;-64
2021/10/29 11:35:03;;;;;;;18.08;7.50;;;15.80;78.80;;;;;;4184778;28;20091;-62
2021/10/29 11:37:04;;;;;;;13.30;7.47;;;15.90;78.60;;;;;;4185755;28;20423;-63
2021/10/29 11:39:09;;;;;;;15.23;8.00;;;15.90;78.20;;;;;;4184321;28;20028;-64
2021/10/29 11:41:16;;;;;;;12.40;7.40;;;15.90;78.10;;;;;;4184345;28;20024;-63
2021/10/29 11:43:27;;;;;;;18.77;7.78;;;15.90;77.80;;;;;;4184055;28;20531;-62
2021/10/29 11:45:34;;;;;;;18.65;8.85;;;15.90;77.90;;;;;;4190139;28;20086;-60
2021/10/29 11:47:36;;;;;;;17.08;7.70;;;16.00;78.00;;;;;;4187079;28;20033;-62
2021/10/29 11:49:37;;;;;;;14.60;7.78;;;16.10;78.40;;;;;;4189508;28;20028;-62
2021/10/29 11:51:41;;;;;;;19.67;9.70;;;16.10;77.80;;;;;;4189488;28;20560;-62
2021/10/29 11:53:48;;;;;;;16.48;8.10;;;16.20;78.00;;;;;;4188920;28;20058;-62
2021/10/29 11:55:55;;;;;;;15.52;7.40;;;16.20;77.80;;;;;;4189153;28;20029;-62
2021/10/29 11:58:09;;;;;;;15.13;8.48;;;16.20;77.20;;;;;;4189577;28;20020;-63
2021/10/29 12:08:47;;;;;;;24.73;10.68;;;16.30;76.80;;;;;;4189116;28;20037;-63
2021/10/29 12:10:50;;;;;;;21.45;8.82;;;16.40;76.80;;;;;;4189237;28;20074;-63
2021/10/29 12:12:55;;;;;;;18.83;8.93;;;16.30;76.20;;;;;;4188069;28;20060;-63
2021/10/29 12:15:13;;;;;;;12.93;7.95;;;16.30;76.40;;;;;;4189251;28;20028;-64
2021/10/29 12:17:29;;;;;;;16.25;8.55;;;16.30;76.40;;;;;;4188869;28;20040;-62
2021/10/29 12:19:30;;;;;;;18.73;8.65;;;16.40;76.10;;;;;;4188851;28;20048;-63
2021/10/29 12:21:39;;;;;;;15.65;8.30;;;16.30;75.80;;;;;;4188158;28;20396;-63
2021/10/29 12:23:41;;;;;;;18.75;7.75;;;16.30;75.70;;;;;;4188197;28;20021;-63
2021/10/29 12:27:48;;;;;;;18.13;8.85;;;16.30;75.50;;;;;;4187963;28;20537;-63
2021/10/29 12:31:07;;;;;;;20.85;8.88;;;16.40;75.60;;;;;;4188868;28;20567;-63
2021/10/29 12:54:32;;;;;;;15.30;7.25;;;16.80;73.70;;;;;;4188603;28;20082;-62
2021/10/29 13:01:36;;;;;;;16.80;8.57;;;16.80;74.70;;;;;;4188233;28;20435;-63
2021/10/29 13:03:38;;;;;;;17.58;9.80;;;16.80;74.60;;;;;;4188648;28;20078;-64
2021/10/29 13:05:39;;;;;;;18.23;9.10;;;16.70;74.70;;;;;;4187841;28;20098;-67